Burtonville, Kentucky
Current Conditions -  °F | °C
As of 3:55 PM on Friday 19 Dec 2014 (Local Time) from KFGX Reporting Station
Overcast Overcast  
Wind Chill: -2°   Ceiling: 2000
Heat Index: -2°   Visibility: 10mi
Dew Point: -6°   Wind: 0mph
Humidity: 73%   Direction: NA
Pressure: 30.25"   Gusts: NA
Location:  38.5845°N, 83.5468°W
Report Text: KFGX 192055Z AUTO 00000KT 10SM OVC020 M01/M06 A3025 RMK AO2 T10151057
Loading
Personal Weather Stations






























Interactive Weather Map New forecast layout! Learn more

10-Day Weather Forecast

Advertisements
Track Severe Weather on mobile